Pittsburg, NH

1:39 AM EST on November 29, 2014 (GMT -0500)
First Connecticut Lake | Change Station
CLOSE
Current Station
Personal Weather Station
Location: Pittsburg, NH
Elevation: 1854 ft
Nearby Weather Stations

Elev 1854 ft 45.11 °N, 71.29 °W | Updated 14 seconds ago

Overcast
Overcast
12.7 °F
Feels Like 13 °F
N
2.3
Wind Variable Wind from SSW
Gusts 2.3 mph

Today
High -- | Low -- °F
--% Chance of Precip.
Yesterday
High -- | Low -- °F
Precip. -- in
7:01 AM 4:05 PM
Waxing Crescent, 48% visible
Pressure 30.19 in
Visibility 9.0 miles
Clouds Overcast 3600 ft
Windchill 13 °F
Dew Point 11 °F
Humidity 91%
Rainfall 0.00 in
Snow Depth Not available.
UV 0.0 out of 12
Pollen .10 out of 12
Air Quality Not available.
Flu Activity Not available.
METAR KBML 290552Z AUTO 00000KT 9SM OVC036 M13/M16 A3012 RMK AO2 SLP222 I6000 T11281156 11072 21167 51008

More Conditions Fewer Conditions

Pressure 30.19 in
Visibility 9.0 miles
Clouds Overcast 3600 ft
Windchill 13 °F
Dew Point 11 °F
Humidity 91%
Rainfall 0.00 in
Snow Depth Not available.
UV 0.0 out of 12
Pollen .10 out of 12
Air Quality Not available.
Flu Activity Not available.
METAR KBML 290552Z AUTO 00000KT 9SM OVC036 M13/M16 A3012 RMK AO2 SLP222 I6000 T11281156 11072 21167 51008

More Conditions Fewer Conditions

10-Day Weather Forecast

Almanac

Astronomy

Nov. 29, 2014 Rise Set
Actual Time
Civil Twilight
Nautical Twilight
Astronomical Twilight
Moon
Length of Visible Light
Length of Day
Tomorrow will be .
, % of the Moon is Illuminated

Today's Extremes

State Highs State Lows

Community

WunderPhotos

Upload Photos

1,774,431 photos uploaded!

WunderBlogs® & News

Nearby

Air Quality

  Air Quality AQ Index Pollutant
Not available.

Snow Depth

Station Depth Elevation

Earthquake Activity

City Distance Mag. Time & Date
Minimum magnitude displayed is 2.5.

Coastal Water Temperatures

Place Temperature

Nearby Weather Stations